National Geographic Sea Bird — WAK8004 — position and weather

sailwx.info

Track history (hours):
 
Tides and Currents Weather Stations Pressure Air Temp Water Temp Dewpoint Dewpoint Depression Visibility Wind Speed Wind Dir Waves Ship Positions

National Geographic Sea Bird

Owner: Lindblad Expeditions LLC, SEATTLE, WA. More information available from US FCC via Universal Licensing System and Coast Guard Vessel Documentation Center.

Last reported at 2018-Aug-10 05:21 UTC. Time now 2018-Aug-14 15:19 UTC.
Position N 58°14' W 135°23'.

Length 50 m; draft 2.7 m.

Type: Passenger vessel. MMSI: 366892350.

Date/timePositionNaut miles runAvg speedWind from/ knotsBaromVisibWave heightAir tempDewpointWater temp
2018-Aug-10 05:21N 58°14' W 135°23'4 9.8
2018-Aug-10 04:58N 58°15' W 135°30'4 9.4
2018-Aug-10 04:30N 58°16' W 135°38'5 9.3
2018-Aug-10 04:00N 58°18' W 135°46'510.1
2018-Aug-10 03:30N 58°15' W 135°55'4 7.7
2018-Aug-10 03:00N 58°15' W 136°02'5 9.0
2018-Aug-10 02:29N 58°15' W 136°11'4 8.4
2018-Aug-10 02:00N 58°14' W 136°18'1 0.9
2018-Aug-10 00:53N 58°14' W 136°20'0 0.0
2018-Aug-09 22:05N 58°14' W 136°20'1 0.1
2018-Aug-09 14:16N 58°13' W 136°19'2 6.6
2018-Aug-09 14:00N 58°13' W 136°16'3 5.9
2018-Aug-09 13:30N 58°10' W 136°13'2 4.0
2018-Aug-09 13:00N 58°12' W 136°13'3 5.8
2018-Aug-09 12:28N 58°15' W 136°10'5 9.6
2018-Aug-09 12:00N 58°15' W 136°02'4 7.2
2018-Aug-09 11:30N 58°16' W 135°56'4 7.9
2018-Aug-09 11:00N 58°18' W 135°49'5 8.9
2018-Aug-09 10:26N 58°16' W 135°40'  
2018-Aug-06 09:21N 58°12' W 135°25'4 9.0
2018-Aug-06 08:55N 58°14' W 135°32'4 9.2
2018-Aug-06 08:29N 58°16' W 135°38'4 8.5
2018-Aug-06 07:59N 58°18' W 135°45'4 9.0
2018-Aug-06 07:30N 58°19' W 135°53'5 9.4
2018-Aug-06 07:00N 58°23' W 135°58'5 9.8
2018-Aug-06 06:31N 58°27' W 135°54'0 0.4
2018-Aug-06 05:58N 58°27' W 135°53'0 0.0
2018-Aug-06 05:30N 58°27' W 135°53'0 0.7
2018-Aug-06 05:01N 58°28' W 135°54'0 0.1
2018-Aug-06 04:30N 58°28' W 135°54'3 6.5
2018-Aug-06 04:00N 58°26' W 135°59'4 8.3
2018-Aug-06 03:30N 58°30' W 136°04'510.0
2018-Aug-06 03:00N 58°34' W 136°08'510.1
2018-Aug-06 02:30N 58°38' W 136°14'5 3.0
2018-Aug-06 00:59N 58°41' W 136°21'5 0.7
2018-Aug-05 17:18N 58°46' W 136°19'310.1
2018-Aug-05 17:00N 58°45' W 136°14'5 9.8
2018-Aug-05 16:31N 58°41' W 136°08'4 7.6
2018-Aug-05 16:00N 58°39' W 136°03'2 4.5
2018-Aug-05 15:30N 58°36' W 136°03'5 9.2
2018-Aug-05 15:01N 58°32' W 136°04'510.3
2018-Aug-05 14:30N 58°27' W 136°01'4 3.8
2018-Aug-05 13:28N 58°27' W 135°53'0 0.0
2018-Aug-05 12:58N 58°27' W 135°53'0 0.0
2018-Aug-05 12:28N 58°27' W 135°53'0 0.0
2018-Aug-05 11:58N 58°27' W 135°53'0 0.0
2018-Aug-05 11:28N 58°27' W 135°53'0 0.0
2018-Aug-05 10:58N 58°27' W 135°53'0 0.0
2018-Aug-05 10:28N 58°27' W 135°53'0 0.0
2018-Aug-05 09:58N 58°27' W 135°53'0 0.0
2018-Aug-05 09:28N 58°27' W 135°53'0 0.0
2018-Aug-05 08:58N 58°27' W 135°53'3 5.6
2018-Aug-05 08:30N 58°25' W 135°57'4 7.4
2018-Aug-05 08:00N 58°22' W 135°57'2 4.5
2018-Aug-05 07:30N 58°20' W 135°54'4 8.7
2018-Aug-05 07:00N 58°22' W 135°47'1 2.7
2018-Aug-05 06:27N 58°23' W 135°44'0 0.0
2018-Aug-05 05:57N 58°23' W 135°44'0 0.0
2018-Aug-05 05:27N 58°23' W 135°44'0 0.0
2018-Aug-05 05:00N 58°23' W 135°44'0 0.0
2018-Aug-05 04:30N 58°23' W 135°44'2 4.4
2018-Aug-05 04:00N 58°22' W 135°48'5 9.4
2018-Aug-05 03:30N 58°19' W 135°55'5 9.2
2018-Aug-05 03:00N 58°16' W 136°02'5 9.6
2018-Aug-05 02:30N 58°15' W 136°11'5 9.4
2018-Aug-05 02:00N 58°14' W 136°19'2 0.9
2018-Aug-05 00:00N 58°12' W 136°18'3 0.2 030 / 171015.0 18.3
2018-Aug-04 13:39N 58°13' W 136°22'1 7.4
2018-Aug-04 13:28N 58°13' W 136°20'4 8.4
2018-Aug-04 13:00N 58°14' W 136°13'4 8.6
2018-Aug-04 12:30N 58°15' W 136°04'5 9.2
2018-Aug-04 12:00N 58°16' W 135°56'5 9.6
2018-Aug-04 11:30N 58°18' W 135°48'5 9.9
2018-Aug-04 11:00N 58°17' W 135°39'610.5
2018-Aug-04 10:27N 58°15' W 135°28'  
Track history (hours):
 
Tides and Currents Weather Stations Pressure Air Temp Water Temp Dewpoint Dewpoint Depression Visibility Wind Speed Wind Dir Waves Ship Positions

National Geographic Sea Bird

Owner: Lindblad Expeditions LLC, SEATTLE, WA. More information available from US FCC via Universal Licensing System and Coast Guard Vessel Documentation Center.

Last reported at 2018-Aug-10 05:21 UTC. Time now 2018-Aug-14 15:19 UTC.
Position N 58°14' W 135°23'.

Length 50 m; draft 2.7 m.

Type: Passenger vessel. MMSI: 366892350.

Date/timePositionNaut miles runAvg speedWind from/ knotsBaromVisibWave heightAir tempDewpointWater temp
2018-Aug-10 05:21N 58°14' W 135°23'4 9.8
2018-Aug-10 04:58N 58°15' W 135°30'4 9.4
2018-Aug-10 04:30N 58°16' W 135°38'5 9.3
2018-Aug-10 04:00N 58°18' W 135°46'510.1
2018-Aug-10 03:30N 58°15' W 135°55'4 7.7
2018-Aug-10 03:00N 58°15' W 136°02'5 9.0
2018-Aug-10 02:29N 58°15' W 136°11'4 8.4
2018-Aug-10 02:00N 58°14' W 136°18'1 0.9
2018-Aug-10 00:53N 58°14' W 136°20'0 0.0
2018-Aug-09 22:05N 58°14' W 136°20'1 0.1
2018-Aug-09 14:16N 58°13' W 136°19'2 6.6
2018-Aug-09 14:00N 58°13' W 136°16'3 5.9
2018-Aug-09 13:30N 58°10' W 136°13'2 4.0
2018-Aug-09 13:00N 58°12' W 136°13'3 5.8
2018-Aug-09 12:28N 58°15' W 136°10'5 9.6
2018-Aug-09 12:00N 58°15' W 136°02'4 7.2
2018-Aug-09 11:30N 58°16' W 135°56'4 7.9
2018-Aug-09 11:00N 58°18' W 135°49'5 8.9
2018-Aug-09 10:26N 58°16' W 135°40'  
2018-Aug-06 09:21N 58°12' W 135°25'4 9.0
2018-Aug-06 08:55N 58°14' W 135°32'4 9.2
2018-Aug-06 08:29N 58°16' W 135°38'4 8.5
2018-Aug-06 07:59N 58°18' W 135°45'4 9.0
2018-Aug-06 07:30N 58°19' W 135°53'5 9.4
2018-Aug-06 07:00N 58°23' W 135°58'5 9.8
2018-Aug-06 06:31N 58°27' W 135°54'0 0.4
2018-Aug-06 05:58N 58°27' W 135°53'0 0.0
2018-Aug-06 05:30N 58°27' W 135°53'0 0.7
2018-Aug-06 05:01N 58°28' W 135°54'0 0.1
2018-Aug-06 04:30N 58°28' W 135°54'3 6.5
2018-Aug-06 04:00N 58°26' W 135°59'4 8.3
2018-Aug-06 03:30N 58°30' W 136°04'510.0
2018-Aug-06 03:00N 58°34' W 136°08'510.1
2018-Aug-06 02:30N 58°38' W 136°14'5 3.0
2018-Aug-06 00:59N 58°41' W 136°21'5 0.7
2018-Aug-05 17:18N 58°46' W 136°19'310.1
2018-Aug-05 17:00N 58°45' W 136°14'5 9.8
2018-Aug-05 16:31N 58°41' W 136°08'4 7.6
2018-Aug-05 16:00N 58°39' W 136°03'2 4.5
2018-Aug-05 15:30N 58°36' W 136°03'5 9.2
2018-Aug-05 15:01N 58°32' W 136°04'510.3
2018-Aug-05 14:30N 58°27' W 136°01'4 3.8
2018-Aug-05 13:28N 58°27' W 135°53'0 0.0
2018-Aug-05 12:58N 58°27' W 135°53'0 0.0
2018-Aug-05 12:28N 58°27' W 135°53'0 0.0
2018-Aug-05 11:58N 58°27' W 135°53'0 0.0
2018-Aug-05 11:28N 58°27' W 135°53'0 0.0
2018-Aug-05 10:58N 58°27' W 135°53'0 0.0
2018-Aug-05 10:28N 58°27' W 135°53'0 0.0
2018-Aug-05 09:58N 58°27' W 135°53'0 0.0
2018-Aug-05 09:28N 58°27' W 135°53'0 0.0
2018-Aug-05 08:58N 58°27' W 135°53'3 5.6
2018-Aug-05 08:30N 58°25' W 135°57'4 7.4
2018-Aug-05 08:00N 58°22' W 135°57'2 4.5
2018-Aug-05 07:30N 58°20' W 135°54'4 8.7
2018-Aug-05 07:00N 58°22' W 135°47'1 2.7
2018-Aug-05 06:27N 58°23' W 135°44'0 0.0
2018-Aug-05 05:57N 58°23' W 135°44'0 0.0
2018-Aug-05 05:27N 58°23' W 135°44'0 0.0
2018-Aug-05 05:00N 58°23' W 135°44'0 0.0
2018-Aug-05 04:30N 58°23' W 135°44'2 4.4
2018-Aug-05 04:00N 58°22' W 135°48'5 9.4
2018-Aug-05 03:30N 58°19' W 135°55'5 9.2
2018-Aug-05 03:00N 58°16' W 136°02'5 9.6
2018-Aug-05 02:30N 58°15' W 136°11'5 9.4
2018-Aug-05 02:00N 58°14' W 136°19'2 0.9
2018-Aug-05 00:00N 58°12' W 136°18'3 0.2 030 / 171015.0 18.3
2018-Aug-04 13:39N 58°13' W 136°22'1 7.4
2018-Aug-04 13:28N 58°13' W 136°20'4 8.4
2018-Aug-04 13:00N 58°14' W 136°13'4 8.6
2018-Aug-04 12:30N 58°15' W 136°04'5 9.2
2018-Aug-04 12:00N 58°16' W 135°56'5 9.6
2018-Aug-04 11:30N 58°18' W 135°48'5 9.9
2018-Aug-04 11:00N 58°17' W 135°39'610.5
2018-Aug-04 10:27N 58°15' W 135°28'  

Dump ship's entire track history